Time;durP1;ratioP1;P1;durP2;ratioP2;P2;SDS_P1;SDS_P2;PMS_P1;PMS_P2;Temp;Humidity;BMP_temperature;BMP_pressure;BME280_temperature;BME280_humidity;BME280_pressure;Samples;Min_cycle;Max_cycle;Signal;HPM_P1;HPM_P2
2022/08/23 00:02:07;;;;;;;0.57;0.40;;;17.00;99.90;;;;;;5023119;28;20100;-83
2022/08/23 00:04:38;;;;;;;0.70;0.45;;;16.90;99.90;;;;;;5016724;28;20108;-80
2022/08/23 00:07:11;;;;;;;0.30;0.20;;;16.90;99.90;;;;;;5033158;28;20040;-80
2022/08/23 00:09:38;;;;;;;0.20;0.20;;;16.90;99.90;;;;;;5032539;28;20498;-82
2022/08/23 00:12:18;;;;;;;0.13;0.13;;;16.90;99.90;;;;;;5028804;28;20043;-82
2022/08/23 00:14:53;;;;;;;0.30;0.30;;;16.90;99.90;;;;;;5012508;28;20480;-80
2022/08/23 00:17:20;;;;;;;0.20;0.20;;;16.80;99.90;;;;;;5012901;28;20089;-80
2022/08/23 00:19:47;;;;;;;0.30;0.25;;;16.80;99.90;;;;;;5012594;28;20551;-80
2022/08/23 00:22:14;;;;;;;0.30;0.30;;;16.80;99.90;;;;;;4983521;28;20125;-80
2022/08/23 00:24:41;;;;;;;0.28;0.28;;;16.80;99.90;;;;;;5015914;28;20045;-82
2022/08/23 00:27:16;;;;;;;0.22;0.22;;;16.80;99.90;;;;;;5000139;28;20038;-82
2022/08/23 00:29:48;;;;;;;0.43;0.35;;;16.70;99.90;;;;;;5031750;28;20522;-80
2022/08/23 00:32:19;;;;;;;0.68;0.38;;;16.70;99.90;;;;;;5048437;28;20034;-80
2022/08/23 00:34:46;;;;;;;0.30;0.30;;;16.70;99.90;;;;;;5028791;28;20042;-80
2022/08/23 00:37:15;;;;;;;0.28;0.28;;;16.60;99.90;;;;;;5011778;28;20384;-82
2022/08/23 00:39:41;;;;;;;0.32;0.32;;;16.60;99.90;;;;;;5028732;28;20145;-80
2022/08/23 00:48:06;;;;;;;0.17;0.17;;;16.60;99.90;;;;;;5035822;28;20533;-80
2022/08/23 00:50:45;;;;;;;0.47;0.30;;;16.50;99.90;;;;;;5048078;28;20049;-82
2022/08/23 00:53:23;;;;;;;0.35;0.17;;;16.50;99.90;;;;;;5031879;28;20091;-82
2022/08/23 00:55:56;;;;;;;0.68;0.38;;;16.50;99.90;;;;;;5027829;28;20038;-82
2022/08/23 00:58:24;;;;;;;0.40;0.40;;;16.50;99.90;;;;;;5028486;28;20038;-80
2022/08/23 01:00:53;;;;;;;0.65;0.50;;;16.50;99.90;;;;;;5011529;28;20056;-82
2022/08/23 01:03:23;;;;;;;0.52;0.30;;;16.50;99.90;;;;;;5028155;28;20069;-83
2022/08/23 01:06:05;;;;;;;0.28;0.28;;;16.40;99.90;;;;;;5011773;28;20040;-82
2022/08/23 01:08:33;;;;;;;0.30;0.30;;;16.40;99.90;;;;;;5011788;28;20507;-81
2022/08/23 01:11:12;;;;;;;0.40;0.30;;;16.40;99.90;;;;;;5011853;28;20078;-82
2022/08/23 01:14:14;;;;;;;0.80;0.50;;;16.40;99.90;;;;;;5011968;28;20049;-83
2022/08/23 01:17:05;;;;;;;0.20;0.20;;;16.40;99.90;;;;;;5011716;28;20042;-80
2022/08/23 01:19:42;;;;;;;0.70;0.40;;;16.40;99.90;;;;;;5016689;28;20073;-80
2022/08/23 01:22:16;;;;;;;0.30;0.30;;;16.40;99.90;;;;;;5027268;28;20130;-80
2022/08/23 01:24:45;;;;;;;0.63;0.30;;;16.30;99.90;;;;;;5039547;28;20124;-82
2022/08/23 01:27:12;;;;;;;0.20;0.20;;;16.30;99.90;;;;;;5030889;28;20045;-80
2022/08/23 01:29:40;;;;;;;0.38;0.38;;;16.30;99.90;;;;;;5027469;28;20054;-80
2022/08/23 01:32:11;;;;;;;0.57;0.38;;;16.30;99.90;;;;;;5042105;28;20224;-81
2022/08/23 01:34:37;;;;;;;0.38;0.35;;;16.20;99.90;;;;;;5031161;28;20076;-82
2022/08/23 01:37:08;;;;;;;0.50;0.30;;;16.20;99.90;;;;;;5030402;28;20069;-82
2022/08/23 01:39:35;;;;;;;0.57;0.40;;;16.20;99.90;;;;;;5030973;28;20030;-80
2022/08/23 01:42:03;;;;;;;0.20;0.20;;;16.10;99.90;;;;;;5030880;28;20049;-81
2022/08/23 01:44:30;;;;;;;0.63;0.38;;;16.10;99.90;;;;;;5027437;28;20076;-80
2022/08/23 01:46:57;;;;;;;0.63;0.50;;;16.10;99.90;;;;;;5010914;28;20086;-82
2022/08/23 01:49:23;;;;;;;0.57;0.40;;;16.10;99.90;;;;;;4994751;28;20525;-82
2022/08/23 01:51:50;;;;;;;0.55;0.45;;;16.10;99.90;;;;;;5011122;28;20046;-81
2022/08/23 01:54:17;;;;;;;0.75;0.50;;;16.10;99.90;;;;;;4998380;28;20377;-80
2022/08/23 01:56:44;;;;;;;0.20;0.20;;;16.10;99.90;;;;;;5046970;28;20213;-82
2022/08/23 01:59:12;;;;;;;0.82;0.57;;;16.10;99.90;;;;;;5014124;28;20068;-83
2022/08/23 02:01:39;;;;;;;0.30;0.28;;;16.00;99.90;;;;;;5028113;28;20502;-80
2022/08/23 02:04:06;;;;;;;0.38;0.38;;;16.00;99.90;;;;;;5000793;28;20073;-80
2022/08/23 02:06:33;;;;;;;0.32;0.32;;;16.00;99.90;;;;;;4998309;28;20407;-80
2022/08/23 02:09:03;;;;;;;0.50;0.40;;;16.00;99.90;;;;;;5013709;28;20052;-82
2022/08/23 02:11:37;;;;;;;0.17;0.17;;;16.00;99.90;;;;;;4998986;28;20045;-80
2022/08/23 02:14:07;;;;;;;0.60;0.35;;;15.90;99.90;;;;;;5030077;28;20085;-82
2022/08/23 02:16:39;;;;;;;0.43;0.30;;;16.00;99.90;;;;;;5046482;28;20038;-80
2022/08/23 02:19:09;;;;;;;0.55;0.40;;;15.90;99.90;;;;;;5029852;28;20458;-82
2022/08/23 02:21:36;;;;;;;0.52;0.30;;;15.90;99.90;;;;;;5030219;28;20141;-83
2022/08/23 02:24:07;;;;;;;0.68;0.52;;;15.90;99.90;;;;;;5030202;28;20052;-81
2022/08/23 02:26:38;;;;;;;0.30;0.30;;;15.90;99.90;;;;;;5030299;28;20045;-80
2022/08/23 02:29:06;;;;;;;0.57;0.47;;;15.90;99.90;;;;;;5030498;28;20037;-82
2022/08/23 02:31:33;;;;;;;0.65;0.40;;;15.80;99.90;;;;;;4994180;28;20483;-80
2022/08/23 02:34:00;;;;;;;0.68;0.50;;;15.80;99.90;;;;;;4994559;28;20030;-80
2022/08/23 02:36:28;;;;;;;0.52;0.40;;;15.80;99.90;;;;;;5010410;28;20702;-80
2022/08/23 02:38:55;;;;;;;0.70;0.38;;;15.80;99.90;;;;;;4978513;28;20077;-80
2022/08/23 02:41:22;;;;;;;0.82;0.60;;;15.80;99.90;;;;;;5001680;28;20057;-82
2022/08/23 02:43:52;;;;;;;0.63;0.35;;;15.80;99.90;;;;;;5029993;28;20050;-80
2022/08/23 02:46:20;;;;;;;0.60;0.40;;;15.70;99.90;;;;;;5029654;28;20108;-80
2022/08/23 02:48:47;;;;;;;0.47;0.40;;;15.70;99.90;;;;;;5045913;28;20081;-83
2022/08/23 02:51:15;;;;;;;0.47;0.30;;;15.70;99.90;;;;;;5009705;28;20040;-83
2022/08/23 02:53:42;;;;;;;1.15;0.73;;;15.70;99.90;;;;;;5010219;28;20042;-80
2022/08/23 02:56:10;;;;;;;1.13;0.47;;;15.60;99.90;;;;;;4994035;28;20050;-82
2022/08/23 02:58:38;;;;;;;0.68;0.47;;;15.70;99.90;;;;;;5009601;28;20046;-83
2022/08/23 03:01:12;;;;;;;0.20;0.20;;;15.60;99.90;;;;;;4993624;28;20412;-82
2022/08/23 03:03:39;;;;;;;0.43;0.40;;;15.60;99.90;;;;;;4994040;28;20842;-83
2022/08/23 03:06:06;;;;;;;0.30;0.30;;;15.60;99.90;;;;;;4961927;28;20077;-83
2022/08/23 03:08:32;;;;;;;0.52;0.50;;;15.60;99.90;;;;;;4977850;28;20043;-82
2022/08/23 03:10:59;;;;;;;0.57;0.43;;;15.60;99.90;;;;;;4978157;28;20077;-81
2022/08/23 03:13:26;;;;;;;0.22;0.22;;;15.50;99.90;;;;;;5002886;28;20400;-82
2022/08/23 03:15:53;;;;;;;0.45;0.40;;;15.50;99.90;;;;;;4962332;28;20565;-82
2022/08/23 03:18:20;;;;;;;0.75;0.50;;;15.50;99.90;;;;;;4977966;28;20050;-83
2022/08/23 03:20:47;;;;;;;0.40;0.40;;;15.50;99.90;;;;;;4978003;28;20093;-80
2022/08/23 03:23:14;;;;;;;0.45;0.30;;;15.50;99.90;;;;;;4964753;28;20038;-83
2022/08/23 03:25:41;;;;;;;0.95;0.52;;;15.50;99.90;;;;;;5009929;28;20400;-83
2022/08/23 03:28:07;;;;;;;0.68;0.55;;;15.50;99.90;;;;;;4977858;28;20053;-82
2022/08/23 03:30:34;;;;;;;0.50;0.40;;;15.50;99.90;;;;;;5009882;28;20492;-83
2022/08/23 03:33:01;;;;;;;0.45;0.45;;;15.40;99.90;;;;;;5009754;28;20566;-83
2022/08/23 03:35:28;;;;;;;0.20;0.20;;;15.40;99.90;;;;;;4993293;28;20039;-82
2022/08/23 03:37:55;;;;;;;0.40;0.40;;;15.40;99.90;;;;;;5009442;28;20077;-83
2022/08/23 03:40:22;;;;;;;0.40;0.40;;;15.40;99.90;;;;;;4993453;28;20085;-83
2022/08/23 03:42:50;;;;;;;0.60;0.60;;;15.30;99.90;;;;;;5013169;28;20557;-81
2022/08/23 03:45:18;;;;;;;0.40;0.40;;;15.30;99.90;;;;;;5012734;28;20034;-81
2022/08/23 03:47:45;;;;;;;0.57;0.45;;;15.30;99.90;;;;;;4996978;28;20046;-82
2022/08/23 03:50:12;;;;;;;0.73;0.52;;;15.30;99.90;;;;;;4996671;28;20042;-82
2022/08/23 03:52:39;;;;;;;0.60;0.50;;;15.30;99.90;;;;;;5025587;28;20047;-80
2022/08/23 03:55:06;;;;;;;0.52;0.40;;;15.20;99.90;;;;;;4977744;28;20057;-80
2022/08/23 03:57:33;;;;;;;0.82;0.60;;;15.20;99.90;;;;;;4977715;28;20499;-80
2022/08/23 04:00:00;;;;;;;0.60;0.52;;;15.20;99.90;;;;;;5011214;28;20058;-80
2022/08/23 04:02:26;;;;;;;0.50;0.45;;;15.20;99.90;;;;;;4977348;28;20480;-83
2022/08/23 04:04:53;;;;;;;0.70;0.43;;;15.20;99.90;;;;;;5009473;28;20074;-80
2022/08/23 04:07:20;;;;;;;0.73;0.60;;;15.20;99.90;;;;;;4993102;28;20038;-80
2022/08/23 04:09:47;;;;;;;0.68;0.60;;;15.20;99.90;;;;;;5033852;28;20042;-80
2022/08/23 04:12:14;;;;;;;1.45;0.80;;;15.20;99.90;;;;;;5014880;28;20048;-83
2022/08/23 04:14:41;;;;;;;0.35;0.35;;;15.20;99.90;;;;;;5016148;28;20038;-83
2022/08/23 04:17:07;;;;;;;0.65;0.50;;;15.10;99.90;;;;;;5000085;28;20406;-80
2022/08/23 04:19:35;;;;;;;0.60;0.52;;;15.10;99.90;;;;;;5015522;28;20042;-82
2022/08/23 04:22:02;;;;;;;0.38;0.30;;;15.10;99.90;;;;;;5015763;28;20085;-83
2022/08/23 04:24:29;;;;;;;0.40;0.40;;;15.10;99.90;;;;;;5031871;28;20070;-80
2022/08/23 04:26:55;;;;;;;0.32;0.32;;;15.10;99.90;;;;;;5000373;28;20154;-80
2022/08/23 04:29:22;;;;;;;0.35;0.35;;;15.10;99.90;;;;;;4999189;28;20522;-83
2022/08/23 04:31:49;;;;;;;0.38;0.32;;;15.10;99.90;;;;;;5016019;28;20049;-80
2022/08/23 04:34:16;;;;;;;0.30;0.30;;;15.10;99.90;;;;;;4999658;28;20049;-80
2022/08/23 04:36:43;;;;;;;1.05;0.80;;;15.10;99.90;;;;;;4999638;28;20038;-80
2022/08/23 04:39:10;;;;;;;0.52;0.45;;;15.10;99.90;;;;;;4999521;28;20096;-80
2022/08/23 04:44:22;;;;;;;1.23;0.65;;;15.10;99.90;;;;;;5034059;28;20045;-81
2022/08/23 04:46:49;;;;;;;0.30;0.28;;;15.10;99.90;;;;;;5031644;28;20049;-82
2022/08/23 04:49:16;;;;;;;0.52;0.47;;;15.10;99.90;;;;;;5031438;28;20080;-81
2022/08/23 04:51:43;;;;;;;0.43;0.38;;;15.10;99.90;;;;;;5012251;28;20037;-80
2022/08/23 04:54:10;;;;;;;0.52;0.40;;;15.10;99.90;;;;;;4996183;28;20605;-81
2022/08/23 04:56:37;;;;;;;0.73;0.50;;;15.10;99.90;;;;;;4995772;28;20042;-83
2022/08/23 04:59:04;;;;;;;0.75;0.50;;;15.10;99.90;;;;;;4995629;28;20488;-80
2022/08/23 05:01:32;;;;;;;0.85;0.52;;;15.10;99.90;;;;;;4995401;28;20068;-81
2022/08/23 05:03:59;;;;;;;1.63;0.90;;;15.20;99.90;;;;;;5011857;28;20129;-81
2022/08/23 05:06:26;;;;;;;0.65;0.50;;;15.20;99.90;;;;;;4979455;28;20125;-80
2022/08/23 05:08:53;;;;;;;0.82;0.63;;;15.20;99.90;;;;;;5012084;28;20053;-83
2022/08/23 05:11:20;;;;;;;0.93;0.68;;;15.20;99.90;;;;;;4995808;28;20038;-81
2022/08/23 05:13:48;;;;;;;0.88;0.50;;;15.20;99.90;;;;;;5011672;28;20384;-80
2022/08/23 05:16:14;;;;;;;0.47;0.43;;;15.30;99.90;;;;;;5011645;28;20034;-83
2022/08/23 05:18:41;;;;;;;0.73;0.50;;;15.30;99.90;;;;;;4979654;28;20042;-82
2022/08/23 05:21:13;;;;;;;1.08;0.60;;;15.30;99.90;;;;;;4995495;28;20093;-80
2022/08/23 05:23:39;;;;;;;1.67;1.10;;;15.40;99.90;;;;;;5011456;28;20042;-83
2022/08/23 05:26:06;;;;;;;0.73;0.60;;;15.40;99.90;;;;;;5011741;28;20443;-80
2022/08/23 05:28:34;;;;;;;0.82;0.57;;;15.50;99.90;;;;;;4979317;28;20407;-80
2022/08/23 05:31:10;;;;;;;2.15;0.65;;;15.50;99.90;;;;;;4995438;28;20495;-81
2022/08/23 05:33:37;;;;;;;0.77;0.55;;;15.50;99.90;;;;;;5011601;28;20042;-80
2022/08/23 05:36:05;;;;;;;0.65;0.52;;;15.50;99.90;;;;;;5016059;28;20084;-83
2022/08/23 05:38:33;;;;;;;0.43;0.43;;;15.70;99.90;;;;;;5014402;28;20388;-83
2022/08/23 05:41:03;;;;;;;0.45;0.40;;;15.60;99.90;;;;;;5030488;28;20490;-81
2022/08/23 05:43:30;;;;;;;0.35;0.35;;;15.70;99.90;;;;;;5030279;28;20388;-81
2022/08/23 05:46:12;;;;;;;1.00;0.70;;;15.70;99.90;;;;;;5047264;28;20045;-83
2022/08/23 05:48:41;;;;;;;0.63;0.55;;;15.80;99.90;;;;;;5030543;28;20049;-81
2022/08/23 05:51:08;;;;;;;0.68;0.50;;;15.90;99.90;;;;;;5030083;28;20128;-83
2022/08/23 05:53:36;;;;;;;0.40;0.40;;;15.90;99.90;;;;;;5046601;28;20462;-83
2022/08/23 05:56:25;;;;;;;1.10;0.80;;;16.00;99.90;;;;;;4998577;28;20038;-83
2022/08/23 05:58:54;;;;;;;0.45;0.45;;;16.00;99.90;;;;;;5030293;28;20053;-80
2022/08/23 06:01:21;;;;;;;1.27;0.60;;;16.10;99.90;;;;;;5013800;28;20046;-81
2022/08/23 06:03:48;;;;;;;0.60;0.40;;;16.10;99.90;;;;;;4997740;28;20042;-84
2022/08/23 06:06:16;;;;;;;0.57;0.57;;;16.20;99.90;;;;;;5030673;28;20041;-81
2022/08/23 06:08:45;;;;;;;1.30;0.90;;;16.20;99.90;;;;;;5019746;28;20053;-83
2022/08/23 06:11:17;;;;;;;0.90;0.52;;;16.30;99.90;;;;;;4999697;28;20049;-84
2022/08/23 06:13:47;;;;;;;0.75;0.70;;;16.30;99.90;;;;;;5029825;28;20173;-83
2022/08/23 06:16:16;;;;;;;1.55;0.93;;;16.40;99.90;;;;;;5014178;28;20071;-84
2022/08/23 06:18:44;;;;;;;1.13;0.73;;;16.40;99.90;;;;;;5029848;28;20042;-83
2022/08/23 06:21:13;;;;;;;0.75;0.57;;;16.50;99.90;;;;;;4981972;28;20045;-83
2022/08/23 06:23:41;;;;;;;1.17;0.70;;;16.60;99.90;;;;;;5013597;28;20045;-81
2022/08/23 06:26:11;;;;;;;1.17;0.88;;;16.60;99.90;;;;;;4997904;28;20112;-81
2022/08/23 06:28:38;;;;;;;0.73;0.52;;;16.70;99.90;;;;;;5013870;28;20038;-81
2022/08/23 06:31:04;;;;;;;0.93;0.68;;;16.80;99.90;;;;;;4997832;28;20038;-84
2022/08/23 06:33:31;;;;;;;1.33;0.90;;;16.80;99.90;;;;;;4979906;28;20057;-81
2022/08/23 06:36:07;;;;;;;1.20;0.90;;;16.90;99.90;;;;;;4997918;28;20057;-84
2022/08/23 06:38:34;;;;;;;1.23;0.80;;;16.90;99.90;;;;;;5013690;28;20046;-83
2022/08/23 06:41:04;;;;;;;1.10;0.80;;;17.00;99.90;;;;;;5010057;28;20113;-80
2022/08/23 06:43:31;;;;;;;1.98;1.10;;;17.10;99.90;;;;;;4994057;28;20132;-82
2022/08/23 06:46:07;;;;;;;1.20;0.88;;;17.10;99.90;;;;;;4993983;28;20042;-81
2022/08/23 06:48:34;;;;;;;1.17;0.80;;;17.20;99.90;;;;;;5018867;28;20044;-84
2022/08/23 06:51:01;;;;;;;1.55;0.95;;;17.30;99.90;;;;;;5011669;28;20402;-84
2022/08/23 06:53:31;;;;;;;1.38;0.80;;;17.40;99.90;;;;;;5013691;28;20510;-80
2022/08/23 06:55:58;;;;;;;1.17;0.75;;;17.40;99.90;;;;;;5013696;28;20049;-80
2022/08/23 06:58:25;;;;;;;0.82;0.70;;;17.50;99.90;;;;;;4981205;28;20407;-82
2022/08/23 07:00:51;;;;;;;1.08;0.82;;;17.60;99.90;;;;;;4977272;28;20809;-86
2022/08/23 07:03:18;;;;;;;1.17;0.70;;;17.70;99.90;;;;;;4977891;28;20121;-83
2022/08/23 07:05:45;;;;;;;1.52;0.88;;;17.80;99.90;;;;;;4977837;28;20046;-80
2022/08/23 07:08:11;;;;;;;1.83;1.08;;;17.90;99.90;;;;;;4977977;28;20038;-83
2022/08/23 07:10:38;;;;;;;1.25;0.88;;;18.10;99.90;;;;;;5009731;28;20082;-86
2022/08/23 07:13:05;;;;;;;0.65;0.55;;;18.30;99.90;;;;;;4994053;28;20555;-81
2022/08/23 07:15:31;;;;;;;1.27;0.80;;;18.30;99.90;;;;;;4993830;28;20128;-83
2022/08/23 07:17:58;;;;;;;1.48;0.80;;;18.50;99.90;;;;;;5019302;28;20038;-80
2022/08/23 07:20:25;;;;;;;1.35;0.75;;;18.70;99.90;;;;;;4996990;28;20127;-80
2022/08/23 07:22:52;;;;;;;0.73;0.55;;;18.70;99.90;;;;;;4997008;28;20085;-80
2022/08/23 07:25:18;;;;;;;1.30;0.80;;;18.80;99.90;;;;;;5013410;28;20629;-83
2022/08/23 07:27:45;;;;;;;1.27;0.90;;;18.90;99.90;;;;;;5045308;28;20411;-82
2022/08/23 07:30:13;;;;;;;1.58;0.90;;;19.10;99.90;;;;;;4997382;28;20050;-80
2022/08/23 07:32:39;;;;;;;1.08;0.77;;;19.30;99.90;;;;;;5028930;28;20489;-83
2022/08/23 07:35:06;;;;;;;0.68;0.60;;;19.40;99.90;;;;;;5045655;28;20073;-80
2022/08/23 07:37:33;;;;;;;1.35;0.80;;;19.50;99.90;;;;;;5013185;28;20038;-82
2022/08/23 07:40:00;;;;;;;1.92;0.90;;;19.60;99.90;;;;;;5029225;28;20046;-83
2022/08/23 07:42:26;;;;;;;1.00;0.70;;;19.80;99.90;;;;;;5029229;28;20453;-82
2022/08/23 07:44:53;;;;;;;2.45;0.98;;;19.80;99.90;;;;;;5029465;28;20038;-82
2022/08/23 07:47:20;;;;;;;1.42;0.80;;;20.00;99.90;;;;;;5000449;28;20041;-83
2022/08/23 07:49:47;;;;;;;0.98;0.77;;;20.10;99.90;;;;;;5048971;28;20049;-82
2022/08/23 07:52:14;;;;;;;0.80;0.63;;;20.20;99.90;;;;;;5016804;28;20106;-82
2022/08/23 07:54:41;;;;;;;1.30;0.80;;;20.40;99.90;;;;;;5016350;28;20034;-82
2022/08/23 07:57:08;;;;;;;0.75;0.60;;;20.50;99.90;;;;;;5016642;28;20498;-80
2022/08/23 07:59:34;;;;;;;3.40;1.05;;;20.60;99.90;;;;;;4999912;28;20534;-80
2022/08/23 08:02:01;;;;;;;1.33;0.80;;;20.70;99.90;;;;;;4995339;28;20050;-80
2022/08/23 08:04:28;;;;;;;1.05;0.80;;;20.80;99.90;;;;;;5012824;28;20080;-83
2022/08/23 08:06:55;;;;;;;0.73;0.60;;;20.80;99.90;;;;;;5029033;28;20491;-82
2022/08/23 08:09:22;;;;;;;1.20;0.77;;;20.90;99.90;;;;;;4996823;28;20042;-80
2022/08/23 08:11:51;;;;;;;0.68;0.60;;;21.00;99.90;;;;;;5012502;28;20041;-80
2022/08/23 08:14:17;;;;;;;0.90;0.60;;;21.10;99.90;;;;;;4997138;28;20054;-80
2022/08/23 08:16:47;;;;;;;0.73;0.68;;;21.30;99.90;;;;;;4980509;28;20046;-82
2022/08/23 08:19:16;;;;;;;1.70;0.80;;;21.40;99.90;;;;;;5028884;28;20053;-83
2022/08/23 08:21:44;;;;;;;0.90;0.70;;;21.50;99.90;;;;;;4997108;28;20492;-81
2022/08/23 08:24:13;;;;;;;0.95;0.50;;;21.60;99.90;;;;;;4996613;28;20038;-83
2022/08/23 08:26:41;;;;;;;0.40;0.40;;;21.70;99.90;;;;;;5028961;28;20042;-80
2022/08/23 08:29:12;;;;;;;0.68;0.68;;;21.90;99.90;;;;;;5028241;28;20046;-80
2022/08/23 08:31:41;;;;;;;1.80;1.08;;;21.90;99.90;;;;;;5012707;28;20066;-80
2022/08/23 08:34:08;;;;;;;1.45;0.77;;;22.00;99.90;;;;;;4995797;28;20038;-80
2022/08/23 08:36:42;;;;;;;0.50;0.47;;;22.10;99.90;;;;;;4996696;28;20046;-83
2022/08/23 08:39:12;;;;;;;1.05;0.60;;;22.20;99.90;;;;;;5029610;28;20056;-80
2022/08/23 08:42:07;;;;;;;0.40;0.40;;;22.30;99.90;;;;;;5031767;28;20050;-82
2022/08/23 08:44:53;;;;;;;4.32;0.65;;;22.40;99.90;;;;;;5047991;28;20120;-80
2022/08/23 08:47:52;;;;;;;1.20;0.60;;;22.50;99.90;;;;;;5031264;28;20622;-82
2022/08/23 08:50:42;;;;;;;0.80;0.60;;;22.70;99.90;;;;;;5031615;28;20191;-80
2022/08/23 08:53:15;;;;;;;1.17;0.75;;;22.80;99.90;;;;;;5031525;28;20623;-82
2022/08/23 08:55:48;;;;;;;0.47;0.45;;;23.00;99.90;;;;;;5031358;28;20499;-80
2022/08/23 08:58:39;;;;;;;0.60;0.50;;;23.20;99.90;;;;;;5030930;28;20428;-80
2022/08/23 09:01:07;;;;;;;1.15;0.70;;;23.30;99.90;;;;;;5047331;28;20042;-80
2022/08/23 09:03:34;;;;;;;1.20;0.70;;;23.30;99.90;;;;;;5015364;28;20045;-83
2022/08/23 09:06:17;;;;;;;0.93;0.60;;;23.50;99.90;;;;;;5011572;28;20181;-80
2022/08/23 09:09:14;;;;;;;1.33;0.65;;;23.60;99.90;;;;;;5027990;28;20035;-83
2022/08/23 09:12:09;;;;;;;0.55;0.50;;;23.70;99.90;;;;;;5011690;28;20045;-80
2022/08/23 09:15:01;;;;;;;1.27;0.70;;;23.70;99.90;;;;;;5011658;28;20499;-80
2022/08/23 09:17:42;;;;;;;0.82;0.63;;;23.80;99.90;;;;;;5029280;28;20101;-80
2022/08/23 09:20:13;;;;;;;0.98;0.63;;;23.90;99.90;;;;;;5011207;28;20046;-82
2022/08/23 09:22:44;;;;;;;1.05;0.60;;;24.10;99.90;;;;;;5013359;28;20046;-83
2022/08/23 09:25:13;;;;;;;0.50;0.50;;;24.20;99.90;;;;;;5030625;28;20042;-82
2022/08/23 09:27:41;;;;;;;5.05;0.70;;;24.40;99.90;;;;;;5014926;28;20104;-82
2022/08/23 09:30:14;;;;;;;0.85;0.60;;;24.50;99.90;;;;;;5030526;28;20041;-82
2022/08/23 09:32:44;;;;;;;0.88;0.57;;;24.70;99.90;;;;;;5047264;28;20052;-83
2022/08/23 09:35:22;;;;;;;0.75;0.60;;;24.80;99.90;;;;;;5027391;28;20044;-81
2022/08/23 09:38:01;;;;;;;1.08;0.70;;;24.90;99.90;;;;;;5011406;28;20108;-82
2022/08/23 09:40:33;;;;;;;1.00;0.60;;;25.10;99.90;;;;;;5027470;28;20038;-83
2022/08/23 09:43:06;;;;;;;1.08;0.80;;;25.40;99.90;;;;;;5027223;28;20101;-82
2022/08/23 09:45:37;;;;;;;0.82;0.60;;;25.50;99.90;;;;;;5028104;28;20086;-83
2022/08/23 09:48:05;;;;;;;1.27;0.70;;;25.60;99.90;;;;;;5010598;28;20456;-81
2022/08/23 09:50:38;;;;;;;1.27;0.70;;;25.70;99.90;;;;;;5025197;28;20053;-82
2022/08/23 09:53:09;;;;;;;0.63;0.50;;;25.90;99.90;;;;;;5030319;28;20116;-81
2022/08/23 09:55:38;;;;;;;0.35;0.35;;;26.10;99.90;;;;;;5030559;28;20077;-80
2022/08/23 09:58:18;;;;;;;0.50;0.40;;;26.20;99.90;;;;;;5028902;28;20052;-81
2022/08/23 10:01:10;;;;;;;0.85;0.60;;;26.20;99.90;;;;;;5010503;28;20141;-82
2022/08/23 10:03:37;;;;;;;1.25;0.68;;;26.10;99.90;;;;;;5001417;28;20133;-82
2022/08/23 10:06:04;;;;;;;0.70;0.50;;;26.10;99.90;;;;;;4995018;28;20042;-82
2022/08/23 10:08:37;;;;;;;0.73;0.60;;;26.10;99.90;;;;;;5009907;28;20101;-81
2022/08/23 10:11:09;;;;;;;0.40;0.40;;;26.10;99.90;;;;;;5010548;28;20046;-82
2022/08/23 10:13:40;;;;;;;0.95;0.65;;;26.20;99.90;;;;;;5026737;28;20126;-82
2022/08/23 10:16:20;;;;;;;0.50;0.50;;;26.30;99.90;;;;;;5010611;28;20039;-81
2022/08/23 10:18:59;;;;;;;0.73;0.50;;;26.40;99.90;;;;;;5026838;28;20428;-83
2022/08/23 10:21:44;;;;;;;0.88;0.50;;;26.40;99.90;;;;;;5010452;28;20101;-80
2022/08/23 10:24:40;;;;;;;0.50;0.50;;;26.40;99.90;;;;;;5026584;28;20042;-82
2022/08/23 10:30:14;;;;;;;0.52;0.52;;;26.50;99.90;;;;;;5023436;28;19965;-81
2022/08/23 10:33:03;;;;;;;0.50;0.50;;;26.70;99.90;;;;;;5030045;28;20050;-81
2022/08/23 10:35:36;;;;;;;1.55;0.77;;;26.80;99.90;;;;;;5046106;28;20077;-83
2022/08/23 10:38:18;;;;;;;0.40;0.40;;;26.80;99.90;;;;;;5042384;28;20126;-82
2022/08/23 10:40:53;;;;;;;0.55;0.50;;;26.90;99.90;;;;;;5026332;28;20046;-83
2022/08/23 10:43:35;;;;;;;0.47;0.47;;;27.00;99.90;;;;;;5009826;28;20761;-81
2022/08/23 10:46:06;;;;;;;0.45;0.30;;;27.00;99.90;;;;;;5026617;28;20046;-82
2022/08/23 10:48:47;;;;;;;0.50;0.40;;;27.20;99.90;;;;;;5042424;28;20049;-81
2022/08/23 10:51:28;;;;;;;0.40;0.40;;;27.10;98.30;;;;;;5029341;28;20046;-82
2022/08/23 10:54:08;;;;;;;0.45;0.40;;;27.20;99.90;;;;;;5029964;28;20096;-81
2022/08/23 10:56:37;;;;;;;0.80;0.52;;;27.30;99.90;;;;;;5029517;28;20525;-83
2022/08/23 10:59:16;;;;;;;1.15;0.60;;;27.30;99.90;;;;;;5045427;28;20044;-82
2022/08/23 11:01:56;;;;;;;0.50;0.50;;;27.40;97.40;;;;;;5009991;28;20038;-82
2022/08/23 11:04:43;;;;;;;0.50;0.40;;;27.40;96.70;;;;;;4993638;28;20503;-83
2022/08/23 11:07:18;;;;;;;0.43;0.43;;;27.40;99.90;;;;;;5009620;28;20500;-81
2022/08/23 11:10:04;;;;;;;0.80;0.45;;;27.50;99.90;;;;;;4993779;28;20053;-82
2022/08/23 11:12:50;;;;;;;0.43;0.43;;;27.60;99.10;;;;;;4993476;28;20064;-83
2022/08/23 11:15:35;;;;;;;;;;;27.50;98.20;;;;;;5009844;28;20042;-82
2022/08/23 11:18:06;;;;;;;0.70;0.50;;;27.50;99.10;;;;;;4993968;28;19921;-81
2022/08/23 11:21:12;;;;;;;0.63;0.50;;;27.50;99.90;;;;;;5007212;28;20283;-83
2022/08/23 11:23:49;;;;;;;0.52;0.50;;;27.50;98.70;;;;;;4938809;28;20483;-84
2022/08/23 11:26:21;;;;;;;0.65;0.60;;;27.60;97.80;;;;;;5017286;28;20041;-83
2022/08/23 11:28:50;;;;;;;0.52;0.40;;;27.60;97.60;;;;;;5016900;28;20045;-81
2022/08/23 11:31:23;;;;;;;0.68;0.50;;;27.70;99.90;;;;;;5016306;28;20077;-80
2022/08/23 11:34:01;;;;;;;0.50;0.45;;;27.70;97.40;;;;;;5015408;28;20410;-81
2022/08/23 11:36:30;;;;;;;0.50;0.50;;;27.80;98.10;;;;;;5016208;28;20395;-81
2022/08/23 11:38:57;;;;;;;0.40;0.40;;;27.80;98.40;;;;;;5000612;28;20073;-83
2022/08/23 11:41:23;;;;;;;0.90;0.60;;;27.80;96.50;;;;;;5016203;28;20065;-83
2022/08/23 11:43:56;;;;;;;0.40;0.40;;;27.90;98.20;;;;;;5016863;28;20050;-83
2022/08/23 11:46:26;;;;;;;0.52;0.50;;;27.90;99.10;;;;;;5011701;28;20034;-83
2022/08/23 11:49:14;;;;;;;0.40;0.40;;;28.00;97.40;;;;;;5013592;28;20578;-83
2022/08/23 11:51:56;;;;;;;0.47;0.40;;;28.10;96.30;;;;;;5011353;28;20034;-83
2022/08/23 11:54:58;;;;;;;0.45;0.40;;;28.10;98.10;;;;;;5016045;28;20034;-80
2022/08/23 11:57:53;;;;;;;1.33;0.50;;;28.10;96.10;;;;;;5000768;28;20069;-82
2022/08/23 12:00:43;;;;;;;0.65;0.50;;;28.20;95.80;;;;;;5026523;28;20177;-82
2022/08/23 12:03:23;;;;;;;0.65;0.50;;;28.30;97.20;;;;;;5028747;28;20840;-81
2022/08/23 12:05:50;;;;;;;0.40;0.40;;;28.30;94.60;;;;;;5029262;28;20052;-82
2022/08/23 12:08:21;;;;;;;0.60;0.50;;;28.40;97.20;;;;;;5029001;28;20125;-82
2022/08/23 12:10:49;;;;;;;0.65;0.50;;;28.40;94.90;;;;;;5029136;28;20043;-81
2022/08/23 12:13:19;;;;;;;2.72;0.60;;;28.40;97.10;;;;;;5029080;28;20045;-82
2022/08/23 12:16:04;;;;;;;0.52;0.45;;;28.40;97.10;;;;;;5030715;28;20495;-83
2022/08/23 12:18:42;;;;;;;0.57;0.40;;;28.50;94.20;;;;;;5045394;28;20065;-81
2022/08/23 12:21:16;;;;;;;0.57;0.50;;;28.50;96.10;;;;;;5048606;28;20061;-81
2022/08/23 12:23:49;;;;;;;0.87;0.50;;;28.50;94.00;;;;;;5032317;28;20093;-83
2022/08/23 12:26:22;;;;;;;0.40;0.40;;;28.50;96.20;;;;;;5048197;28;20824;-82
2022/08/23 12:28:56;;;;;;;1.25;0.60;;;28.50;95.90;;;;;;5025178;28;20117;-81
2022/08/23 12:31:32;;;;;;;0.70;0.50;;;28.50;94.70;;;;;;5011426;28;20034;-81
2022/08/23 12:33:59;;;;;;;0.63;0.40;;;28.60;95.40;;;;;;5028509;28;20049;-82
2022/08/23 12:36:59;;;;;;;0.30;0.30;;;28.70;94.90;;;;;;5012498;28;20050;-83
2022/08/23 12:39:38;;;;;;;0.88;0.50;;;28.70;94.50;;;;;;5028052;28;20046;-83
2022/08/23 12:42:24;;;;;;;0.65;0.43;;;28.90;94.20;;;;;;5012501;28;20193;-82
2022/08/23 12:45:05;;;;;;;1.15;0.50;;;28.90;95.00;;;;;;5028461;28;20388;-81
2022/08/23 12:47:34;;;;;;;0.40;0.40;;;29.00;93.90;;;;;;5011815;28;20476;-81
2022/08/23 12:50:15;;;;;;;0.32;0.30;;;29.00;93.20;;;;;;5012242;28;20078;-83
2022/08/23 12:52:41;;;;;;;0.40;0.40;;;29.00;93.50;;;;;;5013505;28;20035;-81
2022/08/23 12:55:17;;;;;;;0.65;0.40;;;29.00;95.20;;;;;;4999587;28;20509;-81
2022/08/23 12:57:53;;;;;;;0.50;0.50;;;29.00;94.30;;;;;;5031444;28;20049;-82
2022/08/23 13:00:32;;;;;;;0.55;0.40;;;29.00;93.40;;;;;;5031355;28;20519;-83
2022/08/23 13:03:12;;;;;;;0.60;0.50;;;29.00;92.80;;;;;;5031684;28;20041;-82
2022/08/23 13:05:45;;;;;;;0.40;0.40;;;29.10;94.20;;;;;;5045474;28;20530;-83
2022/08/23 13:08:20;;;;;;;0.40;0.40;;;29.00;93.30;;;;;;5047722;28;20049;-81
2022/08/23 13:10:47;;;;;;;0.85;0.52;;;28.80;91.80;;;;;;5030815;28;20100;-81
2022/08/23 13:13:22;;;;;;;0.90;0.60;;;28.70;94.20;;;;;;5015179;28;20521;-81
2022/08/23 13:15:55;;;;;;;0.65;0.55;;;28.60;94.60;;;;;;5047674;28;20038;-82
2022/08/23 13:18:30;;;;;;;0.75;0.50;;;28.60;92.60;;;;;;5031314;28;20029;-81
2022/08/23 13:21:16;;;;;;;;;;;28.50;94.70;;;;;;5048121;28;20041;-83
2022/08/23 13:23:43;;;;;;;0.52;0.43;;;28.60;93.90;;;;;;5047054;28;19924;-81